createdAt,value
2019-05-12T00:00:52.550Z,36.14
2019-05-12T00:03:19.073Z,36.01
2019-05-12T00:05:45.409Z,35.84
2019-05-12T00:08:11.590Z,35.12
2019-05-12T00:10:38.687Z,35.82
2019-05-12T00:13:05.324Z,35.91
2019-05-12T00:15:31.497Z,35.42
2019-05-12T00:17:58.681Z,35.54
2019-05-12T00:20:25.268Z,34.67
2019-05-12T00:22:53.351Z,34.02
2019-05-12T00:25:19.509Z,33.65
2019-05-12T00:27:48.271Z,32.99
2019-05-12T00:30:19.151Z,33.32
2019-05-12T00:32:47.733Z,33.32
2019-05-12T00:35:13.408Z,33.85
2019-05-12T00:37:39.560Z,33.55
2019-05-12T00:40:08.203Z,34.03
2019-05-12T00:42:34.162Z,35.05
2019-05-12T00:45:00.323Z,35.26
2019-05-12T00:47:28.058Z,34.78
2019-05-12T00:49:54.480Z,35.67
2019-05-12T00:52:20.636Z,35.49
2019-05-12T00:54:48.228Z,35.55
2019-05-12T00:57:14.619Z,36.25
2019-05-12T00:59:40.892Z,37.74
2019-05-12T01:02:07.981Z,39.36
2019-05-12T01:07:08.522Z,38.06
2019-05-12T01:09:34.515Z,37.20
2019-05-12T01:12:00.694Z,37.01
2019-05-12T01:14:27.858Z,37.10
2019-05-12T01:16:54.237Z,37.25
2019-05-12T01:19:20.406Z,38.08
2019-05-12T01:21:48.171Z,37.67
2019-05-12T01:24:14.583Z,39.65
2019-05-12T01:26:40.769Z,39.96
2019-05-12T01:29:08.445Z,39.66
2019-05-12T01:31:37.814Z,39.45
2019-05-12T01:34:04.080Z,39.58
2019-05-12T01:36:30.288Z,39.07
2019-05-12T01:39:01.601Z,39.83
2019-05-12T01:41:24.507Z,38.54
2019-05-12T01:43:50.717Z,38.84
2019-05-12T01:46:18.101Z,38.71
2019-05-12T01:48:44.457Z,38.59
2019-05-12T01:51:10.674Z,39.26
2019-05-12T01:53:37.854Z,39.26
2019-05-12T01:56:04.176Z,39.66
2019-05-12T01:58:30.381Z,40.29
2019-05-12T02:00:58.687Z,41.41
2019-05-12T02:03:24.606Z,40.35
2019-05-12T02:05:52.732Z,40.52
2019-05-12T02:08:20.787Z,39.72
2019-05-12T02:10:48.094Z,40.74
2019-05-12T02:13:14.566Z,39.84
2019-05-12T02:15:40.824Z,40.54
2019-05-12T02:18:09.025Z,40.55
2019-05-12T02:20:35.095Z,41.38
2019-05-12T02:23:01.263Z,40.97
2019-05-12T02:25:28.704Z,39.67
2019-05-12T02:27:55.235Z,39.73
2019-05-12T02:30:21.391Z,40.51
2019-05-12T02:32:52.370Z,40.06
2019-05-12T02:35:16.296Z,39.94
2019-05-12T02:37:45.226Z,40.44
2019-05-12T02:40:15.131Z,39.67
2019-05-12T02:42:41.135Z,39.93
2019-05-12T02:45:07.700Z,40.04
2019-05-12T02:47:34.739Z,40.36
2019-05-12T02:50:05.132Z,40.60
2019-05-12T02:52:30.153Z,40.63
2019-05-12T02:55:00.465Z,39.92
2019-05-12T02:57:26.929Z,39.69
2019-05-12T02:59:54.216Z,39.95
2019-05-12T03:02:24.501Z,38.97
2019-05-12T03:04:54.816Z,39.11
2019-05-12T03:07:25.490Z,38.68
2019-05-12T03:09:51.235Z,38.20
2019-05-12T03:12:17.450Z,38.28
2019-05-12T03:14:44.800Z,37.44
2019-05-12T03:17:11.077Z,35.62
2019-05-12T03:19:37.268Z,33.14
2019-05-12T03:22:05.028Z,30.84
2019-05-12T03:24:34.018Z,30.49
2019-05-12T03:26:59.613Z,28.38
2019-05-12T03:29:26.599Z,26.40
2019-05-12T03:31:57.038Z,24.96
2019-05-12T03:34:21.203Z,23.66
2019-05-12T03:36:51.662Z,22.87
2019-05-12T03:39:15.561Z,22.26
2019-05-12T03:41:44.347Z,22.68
2019-05-12T03:44:09.844Z,21.45
2019-05-12T03:46:35.997Z,20.15
2019-05-12T03:49:05.212Z,19.54
2019-05-12T03:51:30.373Z,20.83
2019-05-12T03:53:56.558Z,20.98
2019-05-12T03:56:26.015Z,20.47
2019-05-12T03:58:53.898Z,19.76
2019-05-12T04:01:19.002Z,18.29
2019-05-12T04:03:45.437Z,17.67
2019-05-12T04:06:15.124Z,17.44
2019-05-12T04:08:39.862Z,17.00
2019-05-12T04:11:06.056Z,16.67
2019-05-12T04:13:34.197Z,16.45
2019-05-12T04:16:00.289Z,16.72
2019-05-12T04:18:26.500Z,17.40
2019-05-12T04:20:54.468Z,16.76
2019-05-12T04:23:20.759Z,16.52
2019-05-12T04:25:52.763Z,16.38
2019-05-12T04:28:15.379Z,14.64
2019-05-12T04:30:44.320Z,13.90
2019-05-12T04:33:09.827Z,14.59
2019-05-12T04:35:36.175Z,14.49
2019-05-12T04:38:04.310Z,14.46
2019-05-12T04:40:30.542Z,14.97
2019-05-12T04:42:56.699Z,15.41
2019-05-12T04:45:25.525Z,17.17
2019-05-12T04:47:51.140Z,17.75
2019-05-12T04:50:17.309Z,17.74
2019-05-12T04:52:44.594Z,18.56
2019-05-12T04:55:11.186Z,17.38
2019-05-12T04:57:39.231Z,16.59
2019-05-12T05:00:06.124Z,16.53
2019-05-12T05:02:36.388Z,18.52
2019-05-12T05:05:00.648Z,19.43
2019-05-12T05:07:26.803Z,19.24
2019-05-12T05:09:54.846Z,18.22
2019-05-12T05:12:23.739Z,17.94
2019-05-12T05:14:49.127Z,17.96
2019-05-12T05:17:15.335Z,19.09
2019-05-12T05:19:41.483Z,18.92
2019-05-12T05:22:07.954Z,19.76
2019-05-12T05:24:34.138Z,19.91
2019-05-12T05:27:00.291Z,21.52
2019-05-12T05:29:26.570Z,20.11
2019-05-12T05:31:53.374Z,21.28
2019-05-12T05:34:19.929Z,22.44
2019-05-12T05:36:46.140Z,21.33
2019-05-12T05:39:13.934Z,21.74
2019-05-12T05:41:46.446Z,21.21
2019-05-12T05:44:08.362Z,21.69
2019-05-12T05:46:39.093Z,20.55
2019-05-12T05:49:04.244Z,21.92
2019-05-12T05:51:30.561Z,22.23
2019-05-12T05:53:57.081Z,20.42
2019-05-12T05:56:38.407Z,20.22
2019-05-12T05:58:52.419Z,21.22
2019-05-12T06:01:19.421Z,21.85
2019-05-12T06:03:45.573Z,21.34
2019-05-12T06:06:14.629Z,20.73
2019-05-12T06:08:39.846Z,20.08
2019-05-12T06:11:08.564Z,21.89
2019-05-12T06:13:34.618Z,20.73
2019-05-12T06:16:01.086Z,21.98
2019-05-12T06:18:29.053Z,24.41
2019-05-12T06:20:55.304Z,25.57
2019-05-12T06:23:23.904Z,23.39
2019-05-12T06:25:51.509Z,25.44
2019-05-12T06:28:17.633Z,23.15
2019-05-12T06:30:47.104Z,22.09
2019-05-12T06:33:14.250Z,21.72
2019-05-12T06:35:42.215Z,22.15
2019-05-12T06:38:08.107Z,22.29
2019-05-12T06:40:40.253Z,20.83
2019-05-12T06:43:04.398Z,21.26
2019-05-12T06:45:36.538Z,22.03
2019-05-12T06:47:58.926Z,21.96
2019-05-12T06:50:28.696Z,21.41
2019-05-12T06:52:53.211Z,21.36
2019-05-12T06:55:19.366Z,20.89
2019-05-12T06:57:49.997Z,20.77
2019-05-12T07:00:14.589Z,21.98
2019-05-12T07:02:50.070Z,22.73
2019-05-12T07:05:09.429Z,22.01
2019-05-12T07:07:42.116Z,21.74
2019-05-12T07:10:11.652Z,21.86
2019-05-12T07:12:43.620Z,22.89
2019-05-12T07:15:03.846Z,22.48
2019-05-12T07:17:43.454Z,23.39
2019-05-12T07:20:06.532Z,21.96
2019-05-12T07:22:43.744Z,21.83
2019-05-12T07:25:00.774Z,22.72
2019-05-12T07:27:36.680Z,21.62
2019-05-12T07:29:55.034Z,21.51
2019-05-12T07:32:22.293Z,21.76
2019-05-12T07:34:49.381Z,22.96
2019-05-12T07:37:17.757Z,21.25
2019-05-12T07:39:49.452Z,21.05
2019-05-12T07:42:15.056Z,22.03
2019-05-12T07:44:44.091Z,21.12
2019-05-12T07:47:10.404Z,20.11
2019-05-12T07:49:38.550Z,19.68
2019-05-12T07:52:04.691Z,20.52
2019-05-12T07:54:37.355Z,20.06
2019-05-12T07:57:05.322Z,20.18
2019-05-12T07:59:37.847Z,21.26
2019-05-12T08:01:55.220Z,20.41
2019-05-12T08:04:23.808Z,19.79
2019-05-12T08:06:49.553Z,20.03
2019-05-12T08:09:15.722Z,19.91
2019-05-12T08:11:43.414Z,20.09
2019-05-12T08:14:15.448Z,18.00
2019-05-12T08:16:37.947Z,17.60
2019-05-12T08:19:04.219Z,18.64
2019-05-12T08:21:34.877Z,19.74
2019-05-12T08:23:58.491Z,21.92
2019-05-12T08:26:24.681Z,23.02
2019-05-12T08:28:50.849Z,20.09
2019-05-12T08:31:17.022Z,19.71
2019-05-12T08:33:43.757Z,18.60
2019-05-12T08:36:11.737Z,19.44
2019-05-12T08:38:38.366Z,19.73
2019-05-12T08:41:04.629Z,20.08
2019-05-12T08:43:30.786Z,20.39
2019-05-12T08:46:00.167Z,19.77
2019-05-12T08:48:25.360Z,18.98
2019-05-12T08:50:53.956Z,19.21
2019-05-12T08:53:22.785Z,20.04
2019-05-12T08:55:48.147Z,20.87
2019-05-12T08:58:29.762Z,19.58
2019-05-12T09:00:46.442Z,19.37
2019-05-12T09:03:10.663Z,18.55
2019-05-12T09:05:38.500Z,20.06
2019-05-12T09:08:04.905Z,19.77
2019-05-12T09:10:31.102Z,18.97
2019-05-12T09:12:57.273Z,18.28
2019-05-12T09:15:23.999Z,17.28
2019-05-12T09:17:54.589Z,16.86
2019-05-12T09:20:18.813Z,17.56
2019-05-12T09:22:44.990Z,18.67
2019-05-12T09:25:11.176Z,17.96
2019-05-12T09:27:39.568Z,17.88
2019-05-12T09:30:09.698Z,16.54
2019-05-12T09:32:34.005Z,16.59
2019-05-12T09:35:00.336Z,16.75
2019-05-12T09:37:31.007Z,16.21
2019-05-12T09:39:54.667Z,17.32
2019-05-12T09:42:25.703Z,16.32
2019-05-12T09:44:48.977Z,15.56
2019-05-12T09:47:23.307Z,15.55
2019-05-12T09:49:44.396Z,15.28
2019-05-12T09:52:14.067Z,15.76
2019-05-12T09:54:40.830Z,16.60
2019-05-12T09:57:07.214Z,16.84
2019-05-12T09:59:33.689Z,16.24
2019-05-12T10:02:00.115Z,15.21
2019-05-12T10:04:26.265Z,14.94
2019-05-12T10:06:53.502Z,15.88
2019-05-12T10:09:20.121Z,17.50
2019-05-12T10:11:53.965Z,17.26
2019-05-12T10:14:14.506Z,15.39
2019-05-12T10:16:45.677Z,15.07
2019-05-12T10:19:08.802Z,16.47
2019-05-12T10:21:36.026Z,15.59
2019-05-12T10:24:04.955Z,16.63
2019-05-12T10:26:30.654Z,17.34
2019-05-12T10:28:58.317Z,17.38
2019-05-12T10:31:29.538Z,15.86
2019-05-12T10:33:57.144Z,14.33
2019-05-12T10:36:22.942Z,15.96
2019-05-12T10:38:49.135Z,17.57
2019-05-12T10:41:15.319Z,16.54
2019-05-12T10:43:43.351Z,16.99
2019-05-12T10:46:09.628Z,16.29
2019-05-12T10:48:35.895Z,15.76
2019-05-12T10:51:02.082Z,14.40
2019-05-12T10:53:28.413Z,14.86
2019-05-12T10:55:54.584Z,16.62
2019-05-12T10:58:20.782Z,15.80
2019-05-12T11:00:47.101Z,15.32
2019-05-12T11:03:15.524Z,14.95
2019-05-12T11:05:43.921Z,15.78
2019-05-12T11:08:11.326Z,14.65
2019-05-12T11:10:37.800Z,13.71
2019-05-12T11:13:08.751Z,14.96
2019-05-12T11:15:34.222Z,14.04
2019-05-12T11:18:02.033Z,14.99
2019-05-12T11:20:28.292Z,15.34
2019-05-12T11:22:54.521Z,14.72
2019-05-12T11:25:20.681Z,15.23
2019-05-12T11:27:46.899Z,15.97
2019-05-12T11:30:13.508Z,16.54
2019-05-12T11:32:39.679Z,17.11
2019-05-12T11:35:06.161Z,17.11
2019-05-12T11:37:33.797Z,15.39
2019-05-12T11:40:00.245Z,15.07
2019-05-12T11:42:26.540Z,15.05
2019-05-12T11:44:52.830Z,17.93
2019-05-12T11:47:24.200Z,17.93
2019-05-12T11:49:47.147Z,16.63
2019-05-12T11:52:18.489Z,16.10
2019-05-12T11:54:47.229Z,16.11
2019-05-12T11:57:09.916Z,16.25
2019-05-12T11:59:36.126Z,17.13
2019-05-12T12:02:02.401Z,15.83
2019-05-12T12:04:30.474Z,15.83
2019-05-12T12:06:56.725Z,15.21
2019-05-12T12:09:23.220Z,15.21
2019-05-12T12:11:54.669Z,14.26
2019-05-12T12:14:17.500Z,13.96
2019-05-12T12:16:50.235Z,14.21
2019-05-12T12:19:11.739Z,13.97
2019-05-12T12:21:40.481Z,15.40
2019-05-12T12:24:06.143Z,16.07
2019-05-12T12:26:34.931Z,15.12
2019-05-12T12:29:00.523Z,14.34
2019-05-12T12:31:29.782Z,13.97
2019-05-12T12:33:56.681Z,15.02
2019-05-12T12:36:23.652Z,14.45
2019-05-12T12:38:50.086Z,14.24
2019-05-12T12:41:16.251Z,15.28
2019-05-12T12:43:43.290Z,14.68
2019-05-12T12:46:18.075Z,14.18
2019-05-12T12:48:43.970Z,15.07
2019-05-12T12:51:10.415Z,14.05
2019-05-12T12:53:36.589Z,14.05
2019-05-12T12:56:04.316Z,13.36
2019-05-12T12:58:31.570Z,13.19
2019-05-12T13:00:59.202Z,13.07
2019-05-12T13:03:29.630Z,12.83
2019-05-12T13:05:54.272Z,13.19
2019-05-12T13:08:22.339Z,12.80
2019-05-12T13:10:51.345Z,11.97
2019-05-12T13:13:16.734Z,13.51
2019-05-12T13:15:44.374Z,14.76
2019-05-12T13:18:17.909Z,15.85
2019-05-12T13:20:39.088Z,17.11
2019-05-12T13:23:05.276Z,16.81
2019-05-12T13:25:33.528Z,17.52
2019-05-12T13:28:01.473Z,16.87
2019-05-12T13:30:27.637Z,17.29
2019-05-12T13:32:53.799Z,17.29
2019-05-12T13:35:20.493Z,18.28
2019-05-12T13:37:50.345Z,17.48
2019-05-12T13:40:14.959Z,17.09
2019-05-12T13:42:41.172Z,17.60
2019-05-12T13:45:08.067Z,17.75
2019-05-12T13:47:39.516Z,17.60
2019-05-12T13:50:04.559Z,19.18
2019-05-12T13:52:33.112Z,19.18
2019-05-12T13:55:00.116Z,19.10
2019-05-12T13:57:26.896Z,18.36
2019-05-12T14:00:05.754Z,17.77
2019-05-12T14:02:23.538Z,17.74
2019-05-12T14:04:49.946Z,18.38
2019-05-12T14:07:20.072Z,18.48
2019-05-12T14:09:44.499Z,18.46
2019-05-12T14:12:13.396Z,18.76
2019-05-12T14:14:39.485Z,18.06
2019-05-12T14:17:05.647Z,18.06
2019-05-12T14:19:35.632Z,18.25
2019-05-12T14:21:59.974Z,17.12
2019-05-12T14:24:26.149Z,18.60
2019-05-12T14:26:53.368Z,18.60
2019-05-12T14:29:20.607Z,18.03
2019-05-12T14:31:54.945Z,18.67
2019-05-12T14:34:20.782Z,19.53
2019-05-12T14:36:44.309Z,19.79
2019-05-12T14:39:13.144Z,20.20
2019-05-12T14:41:44.357Z,20.77
2019-05-12T14:44:07.182Z,20.49
2019-05-12T14:46:33.481Z,21.58
2019-05-12T14:48:59.677Z,21.84
2019-05-12T14:51:25.855Z,20.41
2019-05-12T14:53:53.554Z,21.73
2019-05-12T14:56:19.936Z,20.84
2019-05-12T14:58:50.287Z,20.61
2019-05-12T15:01:14.418Z,21.23
2019-05-12T15:03:42.251Z,20.89
2019-05-12T15:06:08.769Z,20.40
2019-05-12T15:08:37.158Z,19.76
2019-05-12T15:11:03.988Z,19.34
2019-05-12T15:13:30.243Z,19.44
2019-05-12T15:16:00.108Z,20.15
2019-05-12T15:18:24.512Z,20.21
2019-05-12T15:20:51.668Z,20.98
2019-05-12T15:23:17.967Z,21.52
2019-05-12T15:25:44.160Z,21.73
2019-05-12T15:28:10.351Z,21.03
2019-05-12T15:30:36.508Z,21.88
2019-05-12T15:33:04.544Z,21.73
2019-05-12T15:35:30.802Z,21.34
2019-05-12T15:37:56.957Z,22.39
2019-05-12T15:40:23.798Z,21.33
2019-05-12T15:42:50.121Z,22.27
2019-05-12T15:45:17.068Z,22.24
2019-05-12T15:47:44.499Z,22.35
2019-05-12T15:50:14.746Z,22.51
2019-05-12T15:52:42.461Z,23.11
2019-05-12T15:55:09.223Z,23.37
2019-05-12T15:57:35.394Z,23.14
2019-05-12T16:00:06.774Z,22.28
2019-05-12T16:02:34.106Z,21.96
2019-05-12T16:05:00.550Z,23.02
2019-05-12T16:07:29.602Z,23.65
2019-05-12T16:09:55.502Z,23.40
2019-05-12T16:12:26.121Z,22.98
2019-05-12T16:14:50.231Z,23.52
2019-05-12T16:17:24.832Z,24.55
2019-05-12T16:19:45.109Z,24.11
2019-05-12T16:22:13.979Z,24.31
2019-05-12T16:24:43.412Z,24.73
2019-05-12T16:27:08.618Z,24.78
2019-05-12T16:29:39.050Z,25.48
2019-05-12T16:32:04.562Z,26.15
2019-05-12T16:34:36.204Z,25.62
2019-05-12T16:36:59.413Z,25.59
2019-05-12T16:39:30.296Z,26.81
2019-05-12T16:41:54.483Z,26.99
2019-05-12T16:44:23.030Z,27.74
2019-05-12T16:46:49.467Z,27.66
2019-05-12T16:49:16.073Z,27.10
2019-05-12T16:51:43.795Z,28.36
2019-05-12T16:54:10.718Z,28.41
2019-05-12T16:56:39.644Z,29.54
2019-05-12T16:59:15.037Z,30.00
2019-05-12T17:01:34.400Z,29.52
2019-05-12T17:04:00.558Z,29.32
2019-05-12T17:06:28.694Z,30.38
2019-05-12T17:08:54.832Z,31.22
2019-05-12T17:11:29.745Z,31.98
2019-05-12T17:13:56.732Z,30.58
2019-05-12T17:16:17.200Z,31.56
2019-05-12T17:18:44.351Z,30.24
2019-05-12T17:21:10.837Z,30.11
2019-05-12T17:23:37.046Z,30.44
2019-05-12T17:26:05.576Z,30.05
2019-05-12T17:28:34.154Z,30.73
2019-05-12T17:30:59.848Z,30.86
2019-05-12T17:33:27.646Z,30.88
2019-05-12T17:35:54.198Z,32.07
2019-05-12T17:38:22.462Z,31.61
2019-05-12T17:40:50.265Z,33.11
2019-05-12T17:43:16.645Z,33.23
2019-05-12T17:45:44.294Z,34.00
2019-05-12T17:48:10.635Z,31.96
2019-05-12T17:50:40.430Z,32.51
2019-05-12T17:53:05.245Z,31.31
2019-05-12T17:55:31.386Z,31.73
2019-05-12T17:57:57.949Z,32.31
2019-05-12T18:00:25.143Z,31.48
2019-05-12T18:02:56.252Z,32.24
2019-05-12T18:05:19.553Z,31.69
2019-05-12T18:07:51.073Z,32.13
2019-05-12T18:10:14.125Z,34.00
2019-05-12T18:12:44.859Z,33.80
2019-05-12T18:15:09.829Z,32.74
2019-05-12T18:17:38.974Z,32.60
2019-05-12T18:20:06.387Z,32.66
2019-05-12T18:22:33.949Z,33.53
2019-05-12T18:25:00.160Z,33.38
2019-05-12T18:27:26.353Z,32.42
2019-05-12T18:29:53.611Z,33.62
2019-05-12T18:32:20.218Z,31.99
2019-05-12T18:34:46.555Z,33.53
2019-05-12T18:37:13.617Z,31.87
2019-05-12T18:39:40.622Z,32.93
2019-05-12T18:42:07.135Z,33.03
2019-05-12T18:44:33.494Z,32.18
2019-05-12T18:46:59.804Z,31.46
2019-05-12T18:49:25.985Z,33.07
2019-05-12T18:51:55.189Z,32.85
2019-05-12T18:54:20.276Z,34.84
2019-05-12T18:56:52.452Z,34.78
2019-05-12T18:59:16.413Z,34.31
2019-05-12T19:01:43.592Z,34.08
2019-05-12T19:04:10.041Z,33.85
2019-05-12T19:06:36.248Z,32.90
2019-05-12T19:09:04.907Z,34.31
2019-05-12T19:11:37.255Z,33.08
2019-05-12T19:13:59.193Z,33.57
2019-05-12T19:16:25.462Z,33.39
2019-05-12T19:18:55.379Z,33.29
2019-05-12T19:21:20.310Z,33.20
2019-05-12T19:23:46.606Z,33.22
2019-05-12T19:26:13.538Z,33.89
2019-05-12T19:28:44.372Z,33.79
2019-05-12T19:31:10.084Z,32.87
2019-05-12T19:33:36.119Z,33.27
2019-05-12T19:36:05.383Z,32.65
2019-05-12T19:38:30.374Z,33.16
2019-05-12T19:41:00.670Z,34.28
2019-05-12T19:43:24.633Z,34.20
2019-05-12T19:45:53.539Z,34.10
2019-05-12T19:48:24.853Z,33.40
2019-05-12T19:50:52.872Z,33.99
2019-05-12T19:53:15.043Z,33.96
2019-05-12T19:55:41.220Z,33.52
2019-05-12T19:58:11.057Z,35.17
2019-05-12T20:00:35.514Z,34.31
2019-05-12T20:03:01.669Z,33.53
2019-05-12T20:05:27.883Z,34.01
2019-05-12T20:07:54.141Z,33.74
2019-05-12T20:10:20.295Z,33.69
2019-05-12T20:12:48.684Z,34.03
2019-05-12T20:15:15.291Z,33.63
2019-05-12T20:17:44.428Z,34.14
2019-05-12T20:20:10.139Z,33.78
2019-05-12T20:22:36.308Z,33.38
2019-05-12T20:25:04.524Z,33.78
2019-05-12T20:27:30.776Z,33.68
2019-05-12T20:29:56.949Z,34.37
2019-05-12T20:32:24.058Z,32.93
2019-05-12T20:34:52.977Z,33.29
2019-05-12T20:37:18.697Z,34.85
2019-05-12T20:39:51.256Z,34.46
2019-05-12T20:42:14.892Z,33.22
2019-05-12T20:44:41.021Z,33.51
2019-05-12T20:47:07.201Z,34.62
2019-05-12T20:49:33.742Z,34.32
2019-05-12T20:52:03.856Z,33.27
2019-05-12T20:54:28.233Z,33.87
2019-05-12T20:57:02.156Z,33.28
2019-05-12T20:59:27.968Z,33.41
2019-05-12T21:01:51.020Z,32.85
2019-05-12T21:04:22.039Z,34.55
2019-05-12T21:06:48.366Z,33.71
2019-05-12T21:09:14.441Z,32.96
2019-05-12T21:11:41.105Z,33.60
2019-05-12T21:14:10.420Z,32.69
2019-05-12T21:16:38.858Z,32.50
2019-05-12T21:19:10.181Z,32.34
2019-05-12T21:21:34.252Z,32.38
2019-05-12T21:23:59.927Z,34.15
2019-05-12T21:26:28.395Z,34.40
2019-05-12T21:28:54.232Z,33.75
2019-05-12T21:31:25.540Z,34.32
2019-05-12T21:33:48.498Z,33.58
2019-05-12T21:36:23.951Z,34.18
2019-05-12T21:38:42.741Z,33.35
2019-05-12T21:41:10.110Z,35.17
2019-05-12T21:43:36.611Z,34.51
2019-05-12T21:46:07.726Z,34.57
2019-05-12T21:48:30.873Z,35.50
2019-05-12T21:50:57.056Z,35.12
2019-05-12T21:53:23.869Z,34.70
2019-05-12T21:55:57.674Z,34.18
2019-05-12T21:58:18.488Z,35.56
2019-05-12T22:00:50.327Z,34.07
2019-05-12T22:03:17.232Z,34.50
2019-05-12T22:05:51.532Z,34.23
2019-05-12T22:08:20.829Z,34.05
2019-05-12T22:10:43.561Z,33.50
2019-05-12T22:13:14.567Z,33.64
2019-05-12T22:15:39.021Z,33.33
2019-05-12T22:18:05.307Z,33.86
2019-05-12T22:20:33.007Z,33.77
2019-05-12T22:23:09.137Z,33.84
2019-05-12T22:25:30.823Z,32.93
2019-05-12T22:27:59.103Z,33.11
2019-05-12T22:30:26.185Z,33.82
2019-05-12T22:32:54.126Z,33.74
2019-05-12T22:35:21.916Z,33.80
2019-05-12T22:37:48.504Z,33.91
2019-05-12T22:40:19.117Z,33.89
2019-05-12T22:42:44.533Z,33.80
2019-05-12T22:45:15.073Z,33.91
2019-05-12T22:47:40.135Z,33.88
2019-05-12T22:50:06.410Z,33.43
2019-05-12T22:52:38.677Z,33.49
2019-05-12T22:55:00.675Z,33.58
2019-05-12T22:57:29.288Z,33.57
2019-05-12T22:59:55.810Z,33.78
2019-05-12T23:02:28.044Z,33.63
2019-05-12T23:04:50.177Z,33.91
2019-05-12T23:07:19.098Z,33.56
2019-05-12T23:09:44.435Z,33.72
2019-05-12T23:12:18.119Z,34.00
2019-05-12T23:14:38.670Z,34.51
2019-05-12T23:17:05.689Z,35.13
2019-05-12T23:19:34.067Z,34.34
2019-05-12T23:22:00.299Z,34.65
2019-05-12T23:24:30.413Z,34.45
2019-05-12T23:26:54.596Z,34.19
2019-05-12T23:29:29.401Z,34.75
2019-05-12T23:31:49.036Z,35.08
2019-05-12T23:34:15.215Z,35.19
2019-05-12T23:36:41.389Z,34.97
2019-05-12T23:39:07.569Z,34.71
2019-05-12T23:41:34.394Z,34.39
2019-05-12T23:44:00.900Z,34.79
2019-05-12T23:46:27.093Z,35.78
2019-05-12T23:48:54.313Z,35.45
2019-05-12T23:51:20.849Z,35.37
2019-05-12T23:53:48.935Z,36.04
2019-05-12T23:56:15.079Z,35.56
2019-05-12T23:58:43.169Z,35.57
